Presque Isle, Maine
Current Conditions -  °F | °C
As of 5:35 AM on Friday 21 Nov 2014 (Local Time) from KPQI Reporting Station
Overcast Overcast  
Wind Chill: 14°   Ceiling: 2800
Heat Index: 14°   Visibility: 10mi
Dew Point:   Wind: 0mph
Humidity: 73%   Direction: NA
Pressure: 29.7"   Gusts: NA
Location:  46.68°N, 68.01°W
Report Text: KPQI 211035Z AUTO 00000KT 10SM OVC028 M10/M14 A2970 RMK AO1
Loading
Personal Weather Stations






























Interactive Weather Map New forecast layout! Learn more

10-Day Weather Forecast

Advertisements
Track Severe Weather on mobile